createdAt,value
2024-01-05T00:01:47.539Z,17.8
2024-01-05T00:06:53.918Z,17.9
2024-01-05T00:12:00.327Z,17.9
2024-01-05T00:17:06.750Z,17.9
2024-01-05T00:22:13.189Z,17.9
2024-01-05T00:27:19.563Z,17.9
2024-01-05T00:32:26.011Z,17.9
2024-01-05T00:37:32.397Z,17.9
2024-01-05T00:42:38.821Z,17.9
2024-01-05T00:47:45.242Z,17.8
2024-01-05T00:52:51.780Z,17.8
2024-01-05T00:57:57.372Z,17.8
2024-01-05T01:03:03.833Z,17.8
2024-01-05T01:08:10.296Z,17.8
2024-01-05T01:13:15.912Z,17.8
2024-01-05T01:18:21.379Z,17.8
2024-01-05T01:23:27.787Z,17.8
2024-01-05T01:28:34.203Z,17.8
2024-01-05T01:33:40.614Z,17.8
2024-01-05T01:38:47.027Z,17.8
2024-01-05T01:43:53.457Z,17.8
2024-01-05T01:48:59.857Z,17.8
2024-01-05T01:54:06.298Z,17.7
2024-01-05T01:59:12.687Z,17.7
2024-01-05T02:04:19.114Z,17.7
2024-01-05T02:09:25.519Z,17.7
2024-01-05T02:14:31.934Z,17.7
2024-01-05T02:19:38.340Z,17.7
2024-01-05T02:24:44.764Z,17.7
2024-01-05T02:29:51.178Z,17.8
2024-01-05T02:34:57.660Z,17.8
2024-01-05T02:40:04.002Z,17.8
2024-01-05T02:45:10.415Z,17.8
2024-01-05T02:50:16.928Z,17.8
2024-01-05T02:55:23.255Z,17.8
2024-01-05T03:00:29.666Z,17.8
2024-01-05T03:05:36.069Z,17.7
2024-01-05T03:10:42.499Z,17.7
2024-01-05T03:15:48.893Z,17.7
2024-01-05T03:20:55.325Z,17.7
2024-01-05T03:26:01.872Z,17.7
2024-01-05T03:31:07.452Z,17.7
2024-01-05T03:36:13.917Z,17.7
2024-01-05T03:41:20.382Z,17.7
2024-01-05T03:46:26.859Z,17.7
2024-01-05T03:51:33.317Z,17.7
2024-01-05T03:56:38.920Z,17.7
2024-01-05T04:01:44.499Z,17.7
2024-01-05T04:06:51.042Z,17.7
2024-01-05T04:11:56.458Z,17.7
2024-01-05T04:17:02.870Z,17.6
2024-01-05T04:22:09.280Z,17.7
2024-01-05T04:27:15.701Z,17.7
2024-01-05T04:32:22.099Z,17.7
2024-01-05T04:37:28.524Z,17.7
2024-01-05T04:42:34.931Z,17.7
2024-01-05T04:47:41.345Z,17.7
2024-01-05T04:52:47.851Z,17.7
2024-01-05T04:57:54.173Z,17.7
2024-01-05T05:03:00.583Z,17.8
2024-01-05T05:08:07.007Z,17.8
2024-01-05T05:13:13.418Z,17.8
2024-01-05T05:18:19.836Z,17.9
2024-01-05T05:23:26.246Z,17.8
2024-01-05T05:28:32.655Z,17.9
2024-01-05T05:33:39.079Z,17.9
2024-01-05T05:38:45.484Z,17.9
2024-01-05T05:43:51.895Z,17.9
2024-01-05T05:48:58.309Z,17.9
2024-01-05T05:54:04.720Z,17.9
2024-01-05T05:59:11.151Z,17.9
2024-01-05T06:04:17.564Z,17.9
2024-01-05T06:09:23.972Z,17.9
2024-01-05T06:14:30.386Z,17.9
2024-01-05T06:19:36.948Z,17.9
2024-01-05T06:24:42.523Z,17.9
2024-01-05T06:29:47.999Z,17.9
2024-01-05T06:34:54.405Z,17.9
2024-01-05T06:40:00.818Z,17.9
2024-01-05T06:45:07.231Z,18
2024-01-05T06:50:13.648Z,17.9
2024-01-05T06:55:20.050Z,18
2024-01-05T07:00:26.520Z,18
2024-01-05T07:05:32.734Z,18
2024-01-05T07:10:39.041Z,18
2024-01-05T07:15:45.347Z,18
2024-01-05T07:20:51.686Z,18.1
2024-01-05T07:25:57.987Z,18.1
2024-01-05T07:31:04.273Z,18.1
2024-01-05T07:36:10.595Z,18.1
2024-01-05T07:41:16.902Z,18.1
2024-01-05T07:46:23.206Z,18.1
2024-01-05T07:51:29.488Z,18.1
2024-01-05T07:56:35.869Z,18.1
2024-01-05T08:01:42.293Z,18.2
2024-01-05T08:06:48.412Z,18.2
2024-01-05T08:11:54.719Z,18.2
2024-01-05T08:17:01.170Z,18.3
2024-01-05T08:22:07.470Z,18.3
2024-01-05T08:27:13.628Z,18.4
2024-01-05T08:32:19.937Z,18.4
2024-01-05T08:37:26.440Z,18.4
2024-01-05T08:42:31.918Z,18.4
2024-01-05T08:47:38.382Z,18.4
2024-01-05T08:52:44.734Z,18.4
2024-01-05T08:57:50.229Z,18.4
2024-01-05T09:02:56.480Z,18.5
2024-01-05T09:08:02.774Z,18.5
2024-01-05T09:13:09.177Z,18.5
2024-01-05T09:18:15.438Z,18.6
2024-01-05T09:23:21.727Z,18.6
2024-01-05T09:28:28.040Z,18.6
2024-01-05T09:33:34.374Z,18.6
2024-01-05T09:38:40.611Z,18.6
2024-01-05T09:43:46.899Z,18.6
2024-01-05T09:48:53.225Z,18.6
2024-01-05T09:53:59.573Z,18.6
2024-01-05T09:59:05.898Z,18.5
2024-01-05T10:04:12.144Z,18.5
2024-01-05T10:09:18.467Z,18.5
2024-01-05T10:14:24.756Z,18.6
2024-01-05T10:19:31.090Z,18.6
2024-01-05T10:24:37.379Z,18.6
2024-01-05T10:29:43.912Z,18.6
2024-01-05T10:34:50.067Z,18.6
2024-01-05T10:39:56.361Z,18.7
2024-01-05T10:45:02.589Z,18.8
2024-01-05T10:50:09.001Z,18.7
2024-01-05T10:55:15.211Z,18.7
2024-01-05T11:00:21.501Z,18.7
2024-01-05T11:05:28.009Z,18.8
2024-01-05T11:10:33.380Z,18.9
2024-01-05T11:15:39.669Z,18.9
2024-01-05T11:20:46.041Z,18.9
2024-01-05T11:25:52.298Z,18.9
2024-01-05T11:30:58.625Z,19
2024-01-05T11:36:04.938Z,19
2024-01-05T11:41:11.256Z,19
2024-01-05T11:46:17.516Z,19
2024-01-05T11:51:23.851Z,19.1
2024-01-05T11:56:30.210Z,19
2024-01-05T12:01:36.512Z,19.1
2024-01-05T12:06:42.842Z,19.1
2024-01-05T12:11:49.112Z,19.2
2024-01-05T12:16:55.383Z,19.2
2024-01-05T12:22:01.710Z,19.2
2024-01-05T12:27:07.967Z,19.2
2024-01-05T12:32:14.279Z,19.1
2024-01-05T12:37:20.664Z,19.1
2024-01-05T12:42:27.176Z,19.1
2024-01-05T12:47:33.273Z,19
2024-01-05T12:52:39.599Z,19
2024-01-05T12:57:45.811Z,19
2024-01-05T13:02:52.112Z,19
2024-01-05T13:07:58.406Z,19
2024-01-05T13:13:04.720Z,18.9
2024-01-05T13:18:11.163Z,18.9
2024-01-05T13:23:16.584Z,18.8
2024-01-05T13:28:22.889Z,18.8
2024-01-05T13:33:29.194Z,18.8
2024-01-05T13:38:35.501Z,18.8
2024-01-05T13:43:41.990Z,18.8
2024-01-05T13:48:48.117Z,18.7
2024-01-05T13:53:54.526Z,18.7
2024-01-05T13:59:00.735Z,18.7
2024-01-05T14:04:07.050Z,18.7
2024-01-05T14:09:13.387Z,18.7
2024-01-05T14:14:19.649Z,18.7
2024-01-05T14:19:25.952Z,18.7
2024-01-05T14:24:32.256Z,18.7
2024-01-05T14:29:38.564Z,18.7
2024-01-05T14:34:44.868Z,18.7
2024-01-05T14:39:51.221Z,18.7
2024-01-05T14:44:57.477Z,18.7
2024-01-05T14:50:03.802Z,18.6
2024-01-05T14:55:10.094Z,18.6
2024-01-05T15:00:16.419Z,18.6
2024-01-05T15:05:22.717Z,18.6
2024-01-05T15:10:29.028Z,18.5
2024-01-05T15:15:35.337Z,18.5
2024-01-05T15:20:41.646Z,18.5
2024-01-05T15:25:47.936Z,18.5
2024-01-05T15:30:54.378Z,18.5
2024-01-05T15:35:59.930Z,18.5
2024-01-05T15:41:05.328Z,18.4
2024-01-05T15:46:11.664Z,18.4
2024-01-05T15:51:18.116Z,18.4
2024-01-05T15:56:24.350Z,18.4
2024-01-05T16:01:30.775Z,18.4
2024-01-05T16:06:37.216Z,18.4
2024-01-05T16:11:43.601Z,18.4
2024-01-05T16:16:50.043Z,18.4
2024-01-05T16:21:56.420Z,18.4
2024-01-05T16:27:02.932Z,18.4
2024-01-05T16:32:09.232Z,18.4
2024-01-05T16:37:15.649Z,18.4
2024-01-05T16:42:22.120Z,18.4
2024-01-05T16:47:28.483Z,18.4
2024-01-05T16:52:34.886Z,18.4
2024-01-05T16:57:41.310Z,18.4
2024-01-05T17:02:47.845Z,18.4
2024-01-05T17:07:54.138Z,18.3
2024-01-05T17:13:00.584Z,18.3
2024-01-05T17:18:06.984Z,18.3
2024-01-05T17:23:13.392Z,18.3
2024-01-05T17:28:19.807Z,18.3
2024-01-05T17:33:26.214Z,18.3
2024-01-05T17:38:32.633Z,18.2
2024-01-05T17:43:39.031Z,18.2
2024-01-05T17:48:45.592Z,18.2
2024-01-05T17:53:51.066Z,18.2
2024-01-05T17:58:57.483Z,18.2
2024-01-05T18:04:03.932Z,18.2
2024-01-05T18:09:10.300Z,18.2
2024-01-05T18:14:16.831Z,18.2
2024-01-05T18:19:23.172Z,18.2
2024-01-05T18:24:29.645Z,18.2
2024-01-05T18:29:36.353Z,18.2
2024-01-05T18:34:42.679Z,18.2
2024-01-05T18:39:49.134Z,18.2
2024-01-05T18:44:55.468Z,18.2
2024-01-05T18:50:01.841Z,18.2
2024-01-05T18:55:08.123Z,18.2
2024-01-05T19:00:14.733Z,18.2
2024-01-05T19:05:21.094Z,18.3
2024-01-05T19:10:27.582Z,18.3
2024-01-05T19:15:33.731Z,18.2
2024-01-05T19:20:40.376Z,18.2
2024-01-05T19:25:46.608Z,18.2
2024-01-05T19:30:53.271Z,18.2
2024-01-05T19:35:59.641Z,18.2
2024-01-05T19:41:05.756Z,18.1
2024-01-05T19:46:12.350Z,18.1
2024-01-05T19:51:18.598Z,18.1
2024-01-05T19:56:25.130Z,18.1
2024-01-05T20:01:31.847Z,18.1
2024-01-05T20:06:37.173Z,18
2024-01-05T20:11:43.499Z,18
2024-01-05T20:16:50.166Z,18
2024-01-05T20:21:56.540Z,18
2024-01-05T20:27:03.117Z,18
2024-01-05T20:32:09.439Z,18
2024-01-05T20:37:15.728Z,18
2024-01-05T20:42:22.181Z,17.9
2024-01-05T20:47:28.346Z,17.9
2024-01-05T20:52:34.763Z,17.9
2024-01-05T20:57:41.168Z,17.9
2024-01-05T21:02:47.579Z,17.9
2024-01-05T21:07:53.999Z,17.9
2024-01-05T21:13:00.576Z,17.9
2024-01-05T21:18:07.000Z,18
2024-01-05T21:23:13.515Z,18
2024-01-05T21:28:19.643Z,18
2024-01-05T21:33:26.070Z,18
2024-01-05T21:38:32.810Z,17.9
2024-01-05T21:43:39.216Z,17.9
2024-01-05T21:48:45.364Z,17.9
2024-01-05T21:53:51.721Z,17.9
2024-01-05T21:58:58.475Z,17.9
2024-01-05T22:04:04.911Z,17.8
2024-01-05T22:09:11.163Z,17.8
2024-01-05T22:14:17.520Z,17.8
2024-01-05T22:19:23.097Z,17.8
2024-01-05T22:24:28.580Z,17.8
2024-01-05T22:29:34.992Z,17.8
2024-01-05T22:34:41.399Z,17.8
2024-01-05T22:39:47.815Z,17.8
2024-01-05T22:44:54.222Z,17.8
2024-01-05T22:50:00.628Z,17.8
2024-01-05T22:55:07.043Z,17.8
2024-01-05T23:00:13.467Z,17.7
2024-01-05T23:05:19.878Z,17.8
2024-01-05T23:10:26.290Z,17.7
2024-01-05T23:15:32.707Z,17.7
2024-01-05T23:20:39.123Z,17.7
2024-01-05T23:25:45.522Z,17.7
2024-01-05T23:30:51.944Z,17.8
2024-01-05T23:35:58.360Z,17.8
2024-01-05T23:41:04.835Z,17.8
2024-01-05T23:46:11.198Z,17.8
2024-01-05T23:51:17.595Z,17.8
2024-01-05T23:56:24.019Z,17.8
